ADDS METAR Data INFO
IDs: Format: Raw Decoded Include TAF

Data at: 1944 UTC 17 Feb 2018

KY70 171935Z AUTO 25013KT 10SM CLR 01/M06 A2995 RMK AO2 T00051058
KY70 171915Z AUTO 25012KT 10SM CLR 01/M05 A2996 RMK AO2 T00101051
KY70 171855Z AUTO 24012G15KT 10SM CLR 01/M06 A2998 RMK AO2 T00091061
KY70 171835Z AUTO 22011KT 10SM CLR 00/M07 A2999 RMK AO2 T00021069
KY70 171815Z AUTO 22010KT 10SM CLR 00/M09 A3002 RMK AO2 T10041087
KY70 171755Z AUTO 22008KT 10SM CLR M01/M10 A3003 RMK AO2 T10111096 11011 21062
KY70 171735Z AUTO 21008KT 10SM CLR M02/M09 A3004 RMK AO2 T10191093
KY70 171715Z AUTO 19008KT 10SM CLR M03/M10 A3004 RMK AO2 T10261098
KY70 171655Z AUTO 20010KT 10SM CLR M03/M10 A3004 RMK AO2 T10311100
KY70 171635Z AUTO 19005KT 10SM CLR M04/M11 A3006 RMK AO2 T10361107
KY70 171615Z AUTO 20006KT 10SM CLR M04/M11 A3007 RMK AO2 T10411106
KY70 171555Z AUTO 21006KT 10SM CLR M04/M10 A3008 RMK AO2 T10441103
KY70 171535Z AUTO 21007KT 10SM CLR M05/M10 A3008 RMK AO2 T10471104
KY70 171515Z AUTO 19008KT 10SM CLR M05/M10 A3008 RMK AO2 T10501101
KY70 171455Z AUTO 19007KT 10SM CLR M05/M10 A3009 RMK AO2 T10511097
KY70 171435Z AUTO 20008KT 10SM CLR M05/M10 A3012 RMK AO2 T10531096
KY70 171415Z AUTO 21007KT 10SM CLR M05/M08 A3013 RMK AO2 T10551085
KY70 171355Z AUTO 20007KT 10SM CLR M06/M08 A3012 RMK AO2 T10571083
KY70 171335Z AUTO 20008KT 10SM CLR M06/M08 A3012 RMK AO2 T10581081
KY70 171315Z AUTO 20006KT 10SM CLR M06/M08 A3013 RMK AO2 T10601080
KY70 171255Z AUTO 20008KT 10SM CLR M06/M08 A3014 RMK AO2 T10601081
KY70 171235Z AUTO 19008KT 10SM CLR M06/M08 A3013 RMK AO2 T10621085
KY70 171215Z AUTO 19007KT 10SM SCT022 M06/M08 A3012 RMK AO2 T10611085
KY70 171155Z AUTO 18006KT 10SM SCT022 M06/M09 A3013 RMK AO2 T10611086 11060 21070
KY70 171135Z AUTO 17007KT 10SM SCT022 M06/M09 A3012 RMK AO2 T10621088
KY70 171115Z AUTO 18008KT 10SM SCT024 M06/M09 A3013 RMK AO2 T10621088
KY70 171055Z AUTO 17005KT 10SM BKN024 M06/M09 A3014 RMK AO2 T10611089
KY70 171035Z AUTO 18007KT 10SM BKN028 M06/M09 A3015 RMK AO2 T10621090
KY70 171015Z AUTO 18004KT 10SM OVC028 M06/M09 A3015 RMK AO2 T10611090
KY70 170955Z AUTO 19006KT 10SM OVC028 M06/M09 A3015 RMK AO2 T10601090
KY70 170935Z AUTO 19006KT 10SM OVC028 M06/M09 A3016 RMK AO2 T10631093
KY70 170915Z AUTO 19007KT 10SM BKN028 M06/M09 A3017 RMK AO2 T10631095
KY70 170855Z AUTO 19008KT 10SM SCT028 M06/M09 A3017 RMK AO2 T10631095
KY70 170835Z AUTO 19006KT 10SM SCT028 M07/M10 A3017 RMK AO2 T10671097
KY70 170815Z AUTO 19004KT 10SM CLR M07/M10 A3018 RMK AO2 T10701098
KY70 170755Z AUTO 18006KT 10SM CLR M07/M10 A3018 RMK AO2 T10661097
KY70 170735Z AUTO 17008KT 10SM CLR M07/M10 A3019 RMK AO2 T10701096
KY70 170715Z AUTO 20004KT 10SM CLR M06/M09 A3020 RMK AO2 T10651093
KY70 170655Z AUTO 19004KT 10SM CLR M06/M09 A3020 RMK AO2 T10651093
KY70 170635Z AUTO 19007KT 10SM CLR M07/M09 A3021 RMK AO2 T10661092
KY70 170615Z AUTO 19006KT 10SM CLR M06/M09 A3021 RMK AO2 T10651093
KY70 170555Z AUTO 19006KT 10SM CLR M06/M09 A3022 RMK AO2 T10651093 11022 21067 400131067
KY70 170535Z AUTO 20006KT 10SM CLR M06/M09 A3021 RMK AO2 T10651091
KY70 170515Z AUTO 20005KT 10SM CLR M07/M09 A3021 RMK AO2 T10671092
KY70 170455Z AUTO 23003KT 10SM CLR M06/M09 A3021 RMK AO2 T10651092
KY70 170435Z AUTO 22004KT 10SM CLR M06/M09 A3021 RMK AO2 T10621091
KY70 170415Z AUTO 22004KT 10SM CLR M06/M09 A3022 RMK AO2 T10631091
KY70 170355Z AUTO 23005KT 10SM CLR M06/M09 A3023 RMK AO2 T10651094
KY70 170335Z AUTO 23004KT 10SM CLR M06/M09 A3024 RMK AO2 T10601090
KY70 170315Z AUTO 24006KT 10SM CLR M06/M09 A3024 RMK AO2 T10571091
KY70 170255Z AUTO 23005KT 10SM CLR M06/M09 A3024 RMK AO2 T10591093
KY70 170235Z AUTO 23005KT 10SM CLR M06/M09 A3024 RMK AO2 T10591095
KY70 170215Z AUTO 22005KT 10SM CLR M05/M09 A3023 RMK AO2 T10531092
KY70 170155Z AUTO 22005KT 10SM CLR M05/M09 A3023 RMK AO2 T10521092
KY70 170135Z AUTO 23006KT 10SM CLR M05/M09 A3022 RMK AO2 T10511091
KY70 170115Z AUTO 24005KT 10SM CLR M04/M09 A3023 RMK AO2 T10441090
KY70 170055Z AUTO 26006KT 10SM CLR M03/M09 A3023 RMK AO2 T10331090
KY70 170035Z AUTO 26007KT 10SM CLR M04/M09 A3023 RMK AO2 T10361088
KY70 170015Z AUTO 26006KT 10SM CLR M03/M09 A3023 RMK AO2 T10271088
KY70 162355Z AUTO 26008KT 10SM CLR M02/M09 A3022 RMK AO2 T10211092 10013 21021
KY70 162335Z AUTO 28005KT 10SM CLR M02/M09 A3021 RMK AO2 T10181091
KY70 162315Z AUTO 28010KT 10SM CLR M01/M09 A3020 RMK AO2 T10131095
KY70 162255Z AUTO 28007KT 10SM CLR M01/M09 A3020 RMK AO2 T10081095
KY70 162235Z AUTO 28012KT 10SM SCT043 00/M09 A3020 RMK AO2 T10041094
KY70 162215Z AUTO 26009KT 10SM OVC043 00/M10 A3020 RMK AO2 T00031096
KY70 162155Z AUTO 27009KT 10SM OVC041 00/M09 A3019 RMK AO2 T00011086
KY70 162136Z AUTO 31006G14KT 10SM OVC041 00/M09 A3018 RMK AO2 T00001086
KY70 162115Z AUTO 29010KT 10SM OVC041 01/M08 A3017 RMK AO2 T00101084
KY70 162055Z AUTO 26011KT 10SM BKN041 OVC047 01/M09 A3017 RMK AO2 T00111089
KY70 162036Z AUTO 30007KT 10SM SCT041 OVC047 01/M08 A3017 RMK AO2 T00051079
KY70 162015Z AUTO 30010KT 10SM BKN043 OVC049 01/M09 A3017 RMK AO2 T00051092
KY70 161955Z AUTO 31009G16KT 10SM BKN047 00/M09 A3017 RMK AO2 T00001091
KY70 161935Z AUTO 29009G19KT 10SM BKN045 00/M09 A3016 RMK AO2 T00031089
KY70 161915Z AUTO 29015G18KT 10SM OVC043 01/M09 A3015 RMK AO2 T00101089
KY70 161855Z AUTO 30008G17KT 10SM BKN043 01/M09 A3015 RMK AO2 T00071091
KY70 161835Z AUTO 29012G18KT 10SM BKN039 00/M09 A3014 RMK AO2 T00001093
KY70 161815Z AUTO 31008KT 10SM SCT032 00/M08 A3014 RMK AO2 T10031083
KY70 161755Z AUTO 30012G16KT 10SM OVC032 M01/M07 A3013 RMK AO2 T10061073 11005 21025
KY70 161735Z AUTO 32011KT 10SM OVC034 M01/M08 A3013 RMK AO2 T10061077
KY70 161715Z AUTO 30013G17KT 10SM OVC033 M01/M08 A3013 RMK AO2 T10071079
KY70 161655Z AUTO 32010G17KT 10SM OVC031 M01/M08 A3013 RMK AO2 T10101083
KY70 161635Z AUTO 31010G15KT 10SM OVC026 M01/M07 A3012 RMK AO2 T10091070
KY70 161615Z AUTO 31009G15KT 10SM OVC026 M01/M07 A3011 RMK AO2 T10101068
KY70 161555Z AUTO 31010G16KT 10SM OVC024 M01/M06 A3010 RMK AO2 T10111065
KY70 161535Z AUTO 34012G18KT 10SM OVC024 M01/M07 A3009 RMK AO2 T10131068
KY70 161515Z AUTO 32011G17KT 10SM OVC022 M02/M07 A3009 RMK AO2 T10171068
KY70 161455Z AUTO 32006KT 10SM OVC022 M02/M06 A3007 RMK AO2 T10171063
KY70 161435Z AUTO 32005KT 10SM BKN020 M02/M06 A3007 RMK AO2 T10171063
KY70 161415Z AUTO 31010G15KT 10SM BKN020 M02/M06 A3006 RMK AO2 T10211065
KY70 161355Z AUTO 31010G18KT 10SM OVC020 M02/M06 A3004 RMK AO2 T10211065
KY70 161335Z AUTO 33008KT 10SM OVC020 M02/M06 A3003 RMK AO2 T10221061
KY70 161315Z AUTO 31009KT 10SM BKN020 M02/M06 A3002 RMK AO2 T10231061
KY70 161255Z AUTO 33008G16KT 10SM BKN018 M02/M06 A2999 RMK AO2 T10221063
KY70 161235Z AUTO 31008KT 10SM OVC018 M02/M05 A2997 RMK AO2 T10181050
KY70 161215Z AUTO 32008G14KT 10SM OVC018 M02/M05 A2996 RMK AO2 T10201052
KY70 161155Z AUTO 33010G15KT 10SM OVC018 M02/M05 A2996 RMK AO2 T10181051 10012 21018
KY70 161135Z AUTO 32012G19KT 10SM OVC018 M01/M05 A2994 RMK AO2 T10151048
KY70 161115Z AUTO 32010KT 10SM OVC018 M01/M05 A2993 RMK AO2 T10111046
KY70 161055Z AUTO 32009KT 10SM OVC018 M01/M04 A2992 RMK AO2 T10101045
KY70 161035Z AUTO 32010G14KT 10SM OVC016 M01/M04 A2990 RMK AO2 T10081040
KY70 161015Z AUTO 31011KT 10SM OVC016 M01/M04 A2989 RMK AO2 T10061036
KY70 160955Z AUTO 30009KT 10SM OVC016 00/M03 A2987 RMK AO2 T10051033
KY70 160935Z AUTO 29007KT 10SM OVC014 00/M03 A2986 RMK AO2 T10031030
KY70 160915Z AUTO 29006KT 10SM OVC014 00/M03 A2985 RMK AO2 T00001027
KY70 160855Z AUTO 32007KT 10SM OVC014 00/M02 A2984 RMK AO2 T00001025
KY70 160835Z AUTO 33009KT 10SM OVC016 00/M02 A2984 RMK AO2 T00021025
KY70 160815Z AUTO 32005KT 10SM OVC016 01/M02 A2985 RMK AO2 T00051023
KY70 160755Z AUTO 31006KT 10SM BKN018 OVC120 01/M02 A2984 RMK AO2 T00061019